Bruce L. Hahn — WDH6451 — position and weather

sailwx.info

Track history (hours):
 
Tides and Currents Weather Stations Pressure Air Temp Water Temp Dewpoint Dewpoint Depression Visibility Wind Speed Wind Dir Waves Ship Positions

Bruce L. Hahn

Owner: Marquette Transportation Co. LLC, Paducah, KY. More information available from US FCC via Universal Licensing System and Coast Guard Vessel Documentation Center.

Last reported at 2018-May-28 20:53 UTC. Time now 2018-Jun-19 20:10 UTC.
Position N 32°37' W 091°09'.
Warning: this ship's position is 21 days out of date.

Length 52 m; draft 3 m.

Type: Ship (hazmat cat B). MMSI: 367638090.

Date/timePositionNaut miles runAvg speedWind from/ knotsBaromVisibWave heightAir tempDewpointWater temp
2018-May-28 20:53N 32°37' W 091°09'2 5.4
2018-May-28 20:30N 32°35' W 091°07'3 5.1
2018-May-28 20:00N 32°33' W 091°06'3 5.0
2018-May-28 19:28N 32°31' W 091°07'2 4.7
2018-May-28 19:00N 32°28' W 091°06'3 5.2
2018-May-28 18:30N 32°27' W 091°04'3 5.1
2018-May-28 18:00N 32°26' W 091°01'2 4.5
2018-May-28 17:30N 32°24' W 090°60'2 4.9
2018-May-28 17:00N 32°22' W 091°00'2 3.9
2018-May-28 16:30N 32°21' W 090°58'2 3.2
2018-May-28 16:00N 32°21' W 090°56'2 4.4
2018-May-28 15:30N 32°19' W 090°54'3 5.1
2018-May-28 15:00N 32°17' W 090°56'2 4.9
2018-May-28 14:30N 32°16' W 090°58'3 5.0
2018-May-28 14:00N 32°13' W 090°59'3 5.1
2018-May-28 13:29N 32°11' W 090°60'2 4.8
2018-May-28 13:00N 32°08' W 091°00'2 4.2
2018-May-28 12:29N 32°07' W 091°02'3 5.6
2018-May-28 12:00N 32°08' W 091°05'2 3.9
2018-May-28 11:30N 32°06' W 091°06'3 5.9
2018-May-28 11:00N 32°04' W 091°04'2 4.9
2018-May-28 10:30N 32°02' W 091°04'3 5.3
2018-May-28 10:00N 31°60' W 091°06'4 4.8
2018-May-28 09:08N 31°58' W 091°11'11 4.5
2018-May-28 06:42N 31°51' W 091°20'1 4.7
2018-May-28 06:28N 31°50' W 091°21'  
2018-May-25 01:25N 30°02' W 090°29'  
2018-May-22 06:12N 31°59' W 091°11'2 7.7
2018-May-22 06:00N 31°59' W 091°09'4 7.3
2018-May-22 05:30N 32°00' W 091°05'7 7.6
2018-May-22 04:37N 32°07' W 091°06'1 6.5
2018-May-22 04:28N 32°08' W 091°06'4 7.8
2018-May-22 03:59N 32°07' W 091°02'4 7.4
2018-May-22 03:30N 32°10' W 091°00'4 8.1
2018-May-22 03:00N 32°14' W 090°59'4 7.8
2018-May-22 02:30N 32°17' W 090°56'3 6.6
2018-May-22 02:00N 32°21' W 090°55'4 8.5
2018-May-22 01:30N 32°21' W 090°60'4 7.9
2018-May-22 01:00N 32°25' W 091°00'4 9.0
2018-May-22 00:30N 32°27' W 091°05'5 8.3
2018-May-21 23:55N 32°32' W 091°06'4 8.5
2018-May-21 23:30N 32°35' W 091°08'4 6.9
2018-May-21 22:55N 32°39' W 091°09'5 3.3
2018-May-21 21:23N 32°44' W 091°08'3 7.2
2018-May-21 21:00N 32°47' W 091°10'  
Track history (hours):
 
Tides and Currents Weather Stations Pressure Air Temp Water Temp Dewpoint Dewpoint Depression Visibility Wind Speed Wind Dir Waves Ship Positions

Bruce L. Hahn

Owner: Marquette Transportation Co. LLC, Paducah, KY. More information available from US FCC via Universal Licensing System and Coast Guard Vessel Documentation Center.

Last reported at 2018-May-28 20:53 UTC. Time now 2018-Jun-19 20:10 UTC.
Position N 32°37' W 091°09'.
Warning: this ship's position is 21 days out of date.

Length 52 m; draft 3 m.

Type: Ship (hazmat cat B). MMSI: 367638090.

Date/timePositionNaut miles runAvg speedWind from/ knotsBaromVisibWave heightAir tempDewpointWater temp
2018-May-28 20:53N 32°37' W 091°09'2 5.4
2018-May-28 20:30N 32°35' W 091°07'3 5.1
2018-May-28 20:00N 32°33' W 091°06'3 5.0
2018-May-28 19:28N 32°31' W 091°07'2 4.7
2018-May-28 19:00N 32°28' W 091°06'3 5.2
2018-May-28 18:30N 32°27' W 091°04'3 5.1
2018-May-28 18:00N 32°26' W 091°01'2 4.5
2018-May-28 17:30N 32°24' W 090°60'2 4.9
2018-May-28 17:00N 32°22' W 091°00'2 3.9
2018-May-28 16:30N 32°21' W 090°58'2 3.2
2018-May-28 16:00N 32°21' W 090°56'2 4.4
2018-May-28 15:30N 32°19' W 090°54'3 5.1
2018-May-28 15:00N 32°17' W 090°56'2 4.9
2018-May-28 14:30N 32°16' W 090°58'3 5.0
2018-May-28 14:00N 32°13' W 090°59'3 5.1
2018-May-28 13:29N 32°11' W 090°60'2 4.8
2018-May-28 13:00N 32°08' W 091°00'2 4.2
2018-May-28 12:29N 32°07' W 091°02'3 5.6
2018-May-28 12:00N 32°08' W 091°05'2 3.9
2018-May-28 11:30N 32°06' W 091°06'3 5.9
2018-May-28 11:00N 32°04' W 091°04'2 4.9
2018-May-28 10:30N 32°02' W 091°04'3 5.3
2018-May-28 10:00N 31°60' W 091°06'4 4.8
2018-May-28 09:08N 31°58' W 091°11'11 4.5
2018-May-28 06:42N 31°51' W 091°20'1 4.7
2018-May-28 06:28N 31°50' W 091°21'  
2018-May-25 01:25N 30°02' W 090°29'  
2018-May-22 06:12N 31°59' W 091°11'2 7.7
2018-May-22 06:00N 31°59' W 091°09'4 7.3
2018-May-22 05:30N 32°00' W 091°05'7 7.6
2018-May-22 04:37N 32°07' W 091°06'1 6.5
2018-May-22 04:28N 32°08' W 091°06'4 7.8
2018-May-22 03:59N 32°07' W 091°02'4 7.4
2018-May-22 03:30N 32°10' W 091°00'4 8.1
2018-May-22 03:00N 32°14' W 090°59'4 7.8
2018-May-22 02:30N 32°17' W 090°56'3 6.6
2018-May-22 02:00N 32°21' W 090°55'4 8.5
2018-May-22 01:30N 32°21' W 090°60'4 7.9
2018-May-22 01:00N 32°25' W 091°00'4 9.0
2018-May-22 00:30N 32°27' W 091°05'5 8.3
2018-May-21 23:55N 32°32' W 091°06'4 8.5
2018-May-21 23:30N 32°35' W 091°08'4 6.9
2018-May-21 22:55N 32°39' W 091°09'5 3.3
2018-May-21 21:23N 32°44' W 091°08'3 7.2
2018-May-21 21:00N 32°47' W 091°10'  

Dump ship's entire track history